sensor_id;sensor_type;location;lat;lon;timestamp;temperature;humidity
3986;DHT22;2007;48.750;9.278;2022-12-22T00:00:20;16.00;52.80
3986;DHT22;2007;48.750;9.278;2022-12-22T00:03:11;16.00;52.80
3986;DHT22;2007;48.750;9.278;2022-12-22T00:05:57;16.00;52.80
3986;DHT22;2007;48.750;9.278;2022-12-22T00:08:44;16.00;52.80
3986;DHT22;2007;48.750;9.278;2022-12-22T00:11:31;16.00;52.80
3986;DHT22;2007;48.750;9.278;2022-12-22T00:14:17;16.00;52.80
3986;DHT22;2007;48.750;9.278;2022-12-22T00:17:04;16.00;52.80
3986;DHT22;2007;48.750;9.278;2022-12-22T00:19:52;16.00;52.80
3986;DHT22;2007;48.750;9.278;2022-12-22T00:22:44;16.00;52.80
3986;DHT22;2007;48.750;9.278;2022-12-22T00:25:30;16.00;52.80
3986;DHT22;2007;48.750;9.278;2022-12-22T00:28:16;16.00;52.80
3986;DHT22;2007;48.750;9.278;2022-12-22T00:31:01;16.00;52.80
3986;DHT22;2007;48.750;9.278;2022-12-22T00:33:47;16.00;52.80
3986;DHT22;2007;48.750;9.278;2022-12-22T00:36:32;16.00;52.80
3986;DHT22;2007;48.750;9.278;2022-12-22T00:39:18;16.00;52.80
3986;DHT22;2007;48.750;9.278;2022-12-22T00:42:05;16.00;52.80
3986;DHT22;2007;48.750;9.278;2022-12-22T00:44:50;16.00;52.80
3986;DHT22;2007;48.750;9.278;2022-12-22T00:47:36;16.10;52.80
3986;DHT22;2007;48.750;9.278;2022-12-22T00:50:26;16.10;52.80
3986;DHT22;2007;48.750;9.278;2022-12-22T00:53:14;16.10;52.80
3986;DHT22;2007;48.750;9.278;2022-12-22T00:56:01;16.10;52.80
3986;DHT22;2007;48.750;9.278;2022-12-22T00:58:48;16.10;52.80
3986;DHT22;2007;48.750;9.278;2022-12-22T01:01:33;16.10;52.80
3986;DHT22;2007;48.750;9.278;2022-12-22T01:04:19;16.10;52.80
3986;DHT22;2007;48.750;9.278;2022-12-22T01:07:05;16.10;52.80
3986;DHT22;2007;48.750;9.278;2022-12-22T01:09:51;16.10;52.80
3986;DHT22;2007;48.750;9.278;2022-12-22T01:12:39;16.10;52.80
3986;DHT22;2007;48.750;9.278;2022-12-22T01:15:27;16.10;52.80
3986;DHT22;2007;48.750;9.278;2022-12-22T01:18:13;16.10;52.80
3986;DHT22;2007;48.750;9.278;2022-12-22T01:20:59;16.10;52.80
3986;DHT22;2007;48.750;9.278;2022-12-22T01:23:44;16.10;52.80
3986;DHT22;2007;48.750;9.278;2022-12-22T01:26:30;16.10;52.80
3986;DHT22;2007;48.750;9.278;2022-12-22T01:29:15;16.10;52.80
3986;DHT22;2007;48.750;9.278;2022-12-22T01:32:02;16.10;52.80
3986;DHT22;2007;48.750;9.278;2022-12-22T01:34:48;16.10;52.80
3986;DHT22;2007;48.750;9.278;2022-12-22T01:37:33;16.10;52.80
3986;DHT22;2007;48.750;9.278;2022-12-22T01:40:21;16.10;52.80
3986;DHT22;2007;48.750;9.278;2022-12-22T01:43:18;16.10;53.20
3986;DHT22;2007;48.750;9.278;2022-12-22T01:46:24;16.10;52.80
3986;DHT22;2007;48.750;9.278;2022-12-22T01:49:14;16.10;52.80
3986;DHT22;2007;48.750;9.278;2022-12-22T01:52:00;16.10;52.80
3986;DHT22;2007;48.750;9.278;2022-12-22T01:54:46;16.10;52.80
3986;DHT22;2007;48.750;9.278;2022-12-22T01:57:32;16.10;52.80
3986;DHT22;2007;48.750;9.278;2022-12-22T02:00:18;16.10;52.80
3986;DHT22;2007;48.750;9.278;2022-12-22T02:03:13;16.10;52.80
3986;DHT22;2007;48.750;9.278;2022-12-22T02:06:12;16.10;52.80
3986;DHT22;2007;48.750;9.278;2022-12-22T02:09:26;16.10;52.80
3986;DHT22;2007;48.750;9.278;2022-12-22T02:12:23;16.10;52.80
3986;DHT22;2007;48.750;9.278;2022-12-22T02:15:14;16.20;52.90
3986;DHT22;2007;48.750;9.278;2022-12-22T02:18:06;16.10;52.80
3986;DHT22;2007;48.750;9.278;2022-12-22T02:20:55;16.20;52.90
3986;DHT22;2007;48.750;9.278;2022-12-22T02:24:10;16.10;52.80
3986;DHT22;2007;48.750;9.278;2022-12-22T02:27:01;16.20;52.90
3986;DHT22;2007;48.750;9.278;2022-12-22T02:29:49;16.20;52.90
3986;DHT22;2007;48.750;9.278;2022-12-22T02:32:37;16.20;52.90
3986;DHT22;2007;48.750;9.278;2022-12-22T02:35:36;16.20;52.90
3986;DHT22;2007;48.750;9.278;2022-12-22T02:38:33;16.20;52.90
3986;DHT22;2007;48.750;9.278;2022-12-22T02:41:32;16.20;52.90
3986;DHT22;2007;48.750;9.278;2022-12-22T02:44:27;16.20;52.90
3986;DHT22;2007;48.750;9.278;2022-12-22T02:47:19;16.20;52.90
3986;DHT22;2007;48.750;9.278;2022-12-22T02:50:14;16.20;52.90
3986;DHT22;2007;48.750;9.278;2022-12-22T02:53:01;16.20;52.90
3986;DHT22;2007;48.750;9.278;2022-12-22T02:55:47;16.20;52.90
3986;DHT22;2007;48.750;9.278;2022-12-22T02:58:33;16.20;52.90
3986;DHT22;2007;48.750;9.278;2022-12-22T03:01:20;16.20;52.90
3986;DHT22;2007;48.750;9.278;2022-12-22T03:04:05;16.20;52.90
3986;DHT22;2007;48.750;9.278;2022-12-22T03:06:51;16.20;52.90
3986;DHT22;2007;48.750;9.278;2022-12-22T03:09:36;16.20;52.90
3986;DHT22;2007;48.750;9.278;2022-12-22T03:12:22;16.20;52.90
3986;DHT22;2007;48.750;9.278;2022-12-22T03:15:08;16.20;52.90
3986;DHT22;2007;48.750;9.278;2022-12-22T03:18:00;16.20;52.90
3986;DHT22;2007;48.750;9.278;2022-12-22T03:20:45;16.20;53.00
3986;DHT22;2007;48.750;9.278;2022-12-22T03:23:31;16.20;52.90
3986;DHT22;2007;48.750;9.278;2022-12-22T03:26:16;16.20;52.90
3986;DHT22;2007;48.750;9.278;2022-12-22T03:28:44;16.20;52.90
3986;DHT22;2007;48.750;9.278;2022-12-22T03:31:12;16.20;52.90
3986;DHT22;2007;48.750;9.278;2022-12-22T03:33:42;16.20;52.90
3986;DHT22;2007;48.750;9.278;2022-12-22T03:36:10;16.20;52.90
3986;DHT22;2007;48.750;9.278;2022-12-22T03:38:38;16.20;52.90
3986;DHT22;2007;48.750;9.278;2022-12-22T03:41:06;16.20;52.90
3986;DHT22;2007;48.750;9.278;2022-12-22T03:43:34;16.20;52.90
3986;DHT22;2007;48.750;9.278;2022-12-22T03:46:19;16.20;52.90
3986;DHT22;2007;48.750;9.278;2022-12-22T03:49:01;16.20;52.90
3986;DHT22;2007;48.750;9.278;2022-12-22T03:51:41;16.20;52.90
3986;DHT22;2007;48.750;9.278;2022-12-22T03:54:11;16.20;52.90
3986;DHT22;2007;48.750;9.278;2022-12-22T03:56:39;16.20;53.00
3986;DHT22;2007;48.750;9.278;2022-12-22T03:59:07;16.20;52.90
3986;DHT22;2007;48.750;9.278;2022-12-22T04:01:37;16.20;52.90
3986;DHT22;2007;48.750;9.278;2022-12-22T04:04:07;16.20;52.90
3986;DHT22;2007;48.750;9.278;2022-12-22T04:06:36;16.30;53.00
3986;DHT22;2007;48.750;9.278;2022-12-22T04:09:04;16.20;52.90
3986;DHT22;2007;48.750;9.278;2022-12-22T04:11:32;16.20;52.90
3986;DHT22;2007;48.750;9.278;2022-12-22T04:14:18;16.30;53.00
3986;DHT22;2007;48.750;9.278;2022-12-22T04:16:46;16.30;53.00
3986;DHT22;2007;48.750;9.278;2022-12-22T04:19:15;16.30;53.00
3986;DHT22;2007;48.750;9.278;2022-12-22T04:21:44;16.30;53.00
3986;DHT22;2007;48.750;9.278;2022-12-22T04:24:12;16.30;53.00
3986;DHT22;2007;48.750;9.278;2022-12-22T04:26:40;16.30;53.00
3986;DHT22;2007;48.750;9.278;2022-12-22T04:29:08;16.30;53.00
3986;DHT22;2007;48.750;9.278;2022-12-22T04:31:36;16.30;53.10
3986;DHT22;2007;48.750;9.278;2022-12-22T04:34:04;16.30;53.10
3986;DHT22;2007;48.750;9.278;2022-12-22T04:36:33;16.30;53.00
3986;DHT22;2007;48.750;9.278;2022-12-22T04:39:01;16.30;53.00
3986;DHT22;2007;48.750;9.278;2022-12-22T04:41:29;16.30;53.00
3986;DHT22;2007;48.750;9.278;2022-12-22T04:43:57;16.30;53.00
3986;DHT22;2007;48.750;9.278;2022-12-22T04:46:25;16.30;53.00
3986;DHT22;2007;48.750;9.278;2022-12-22T04:48:53;16.20;52.90
3986;DHT22;2007;48.750;9.278;2022-12-22T04:51:26;16.30;53.00
3986;DHT22;2007;48.750;9.278;2022-12-22T04:53:55;16.30;53.00
3986;DHT22;2007;48.750;9.278;2022-12-22T04:56:23;16.30;53.10
3986;DHT22;2007;48.750;9.278;2022-12-22T04:58:51;16.30;53.00
3986;DHT22;2007;48.750;9.278;2022-12-22T05:01:19;16.30;53.00
3986;DHT22;2007;48.750;9.278;2022-12-22T05:03:47;16.30;53.00
3986;DHT22;2007;48.750;9.278;2022-12-22T05:06:15;16.30;53.00
3986;DHT22;2007;48.750;9.278;2022-12-22T05:08:43;16.30;53.10
3986;DHT22;2007;48.750;9.278;2022-12-22T05:11:12;16.30;53.10
3986;DHT22;2007;48.750;9.278;2022-12-22T05:13:40;16.30;53.00
3986;DHT22;2007;48.750;9.278;2022-12-22T05:16:10;16.30;53.00
3986;DHT22;2007;48.750;9.278;2022-12-22T05:18:40;16.30;53.00
3986;DHT22;2007;48.750;9.278;2022-12-22T05:21:10;16.30;53.00
3986;DHT22;2007;48.750;9.278;2022-12-22T05:23:38;16.30;53.00
3986;DHT22;2007;48.750;9.278;2022-12-22T05:26:06;16.30;53.10
3986;DHT22;2007;48.750;9.278;2022-12-22T05:28:36;16.30;53.10
3986;DHT22;2007;48.750;9.278;2022-12-22T05:31:05;16.30;53.00
3986;DHT22;2007;48.750;9.278;2022-12-22T05:33:33;16.30;53.00
3986;DHT22;2007;48.750;9.278;2022-12-22T05:36:01;16.30;53.00
3986;DHT22;2007;48.750;9.278;2022-12-22T05:38:29;16.30;53.00
3986;DHT22;2007;48.750;9.278;2022-12-22T05:40:57;16.30;53.00
3986;DHT22;2007;48.750;9.278;2022-12-22T05:43:30;16.30;53.00
3986;DHT22;2007;48.750;9.278;2022-12-22T05:46:02;16.30;53.10
3986;DHT22;2007;48.750;9.278;2022-12-22T05:48:30;16.30;53.00
3986;DHT22;2007;48.750;9.278;2022-12-22T05:51:05;16.40;53.10
3986;DHT22;2007;48.750;9.278;2022-12-22T05:53:34;16.30;53.00
3986;DHT22;2007;48.750;9.278;2022-12-22T05:56:02;16.40;53.10
3986;DHT22;2007;48.750;9.278;2022-12-22T05:58:30;16.30;53.10
3986;DHT22;2007;48.750;9.278;2022-12-22T06:01:00;16.30;53.00
3986;DHT22;2007;48.750;9.278;2022-12-22T06:03:29;16.40;53.10
3986;DHT22;2007;48.750;9.278;2022-12-22T06:05:58;16.40;53.10
3986;DHT22;2007;48.750;9.278;2022-12-22T06:08:26;16.40;53.10
3986;DHT22;2007;48.750;9.278;2022-12-22T06:10:55;16.40;53.10
3986;DHT22;2007;48.750;9.278;2022-12-22T06:13:23;16.40;53.10
3986;DHT22;2007;48.750;9.278;2022-12-22T06:15:52;16.40;53.10
3986;DHT22;2007;48.750;9.278;2022-12-22T06:18:21;16.40;53.10
3986;DHT22;2007;48.750;9.278;2022-12-22T06:20:50;16.40;53.10
3986;DHT22;2007;48.750;9.278;2022-12-22T06:23:19;16.40;53.10
3986;DHT22;2007;48.750;9.278;2022-12-22T06:25:53;16.40;53.10
3986;DHT22;2007;48.750;9.278;2022-12-22T06:28:21;16.40;53.10
3986;DHT22;2007;48.750;9.278;2022-12-22T06:30:49;16.40;53.10
3986;DHT22;2007;48.750;9.278;2022-12-22T06:33:17;16.40;53.10
3986;DHT22;2007;48.750;9.278;2022-12-22T06:35:46;16.40;53.10
3986;DHT22;2007;48.750;9.278;2022-12-22T06:38:24;16.40;53.10
3986;DHT22;2007;48.750;9.278;2022-12-22T06:40:52;16.40;53.10
3986;DHT22;2007;48.750;9.278;2022-12-22T06:43:19;16.40;53.10
3986;DHT22;2007;48.750;9.278;2022-12-22T06:45:46;16.40;53.10
3986;DHT22;2007;48.750;9.278;2022-12-22T06:48:14;16.40;53.10
3986;DHT22;2007;48.750;9.278;2022-12-22T06:50:42;16.40;53.10
3986;DHT22;2007;48.750;9.278;2022-12-22T06:53:11;16.40;53.10
3986;DHT22;2007;48.750;9.278;2022-12-22T06:55:39;16.40;53.10
3986;DHT22;2007;48.750;9.278;2022-12-22T06:58:07;16.40;53.10
3986;DHT22;2007;48.750;9.278;2022-12-22T07:00:35;16.40;53.10
3986;DHT22;2007;48.750;9.278;2022-12-22T07:03:03;16.40;53.10
3986;DHT22;2007;48.750;9.278;2022-12-22T07:05:31;16.40;53.10
3986;DHT22;2007;48.750;9.278;2022-12-22T07:07:59;16.40;53.10
3986;DHT22;2007;48.750;9.278;2022-12-22T07:10:36;16.40;53.10
3986;DHT22;2007;48.750;9.278;2022-12-22T07:13:21;16.40;53.10
3986;DHT22;2007;48.750;9.278;2022-12-22T07:15:50;16.50;53.20
3986;DHT22;2007;48.750;9.278;2022-12-22T07:18:27;16.50;53.20
3986;DHT22;2007;48.750;9.278;2022-12-22T07:20:55;16.40;53.10
3986;DHT22;2007;48.750;9.278;2022-12-22T07:23:23;16.50;53.20
3986;DHT22;2007;48.750;9.278;2022-12-22T07:25:52;16.50;53.20
3986;DHT22;2007;48.750;9.278;2022-12-22T07:28:20;16.50;53.20
3986;DHT22;2007;48.750;9.278;2022-12-22T07:30:49;16.50;53.20
3986;DHT22;2007;48.750;9.278;2022-12-22T07:33:17;16.50;53.20
3986;DHT22;2007;48.750;9.278;2022-12-22T07:35:45;16.50;53.20
3986;DHT22;2007;48.750;9.278;2022-12-22T07:38:13;16.50;53.20
3986;DHT22;2007;48.750;9.278;2022-12-22T07:40:41;16.50;53.20
3986;DHT22;2007;48.750;9.278;2022-12-22T07:43:18;16.50;53.20
3986;DHT22;2007;48.750;9.278;2022-12-22T07:45:45;16.50;53.20
3986;DHT22;2007;48.750;9.278;2022-12-22T07:48:13;16.50;53.20
3986;DHT22;2007;48.750;9.278;2022-12-22T07:51:01;16.50;53.20
3986;DHT22;2007;48.750;9.278;2022-12-22T07:53:31;16.50;53.20
3986;DHT22;2007;48.750;9.278;2022-12-22T07:56:02;16.50;53.20
3986;DHT22;2007;48.750;9.278;2022-12-22T07:58:31;16.50;53.20
3986;DHT22;2007;48.750;9.278;2022-12-22T08:00:59;16.50;53.20
3986;DHT22;2007;48.750;9.278;2022-12-22T08:03:27;16.50;53.80
3986;DHT22;2007;48.750;9.278;2022-12-22T08:05:55;16.50;53.20
3986;DHT22;2007;48.750;9.278;2022-12-22T08:08:23;16.50;53.80
3986;DHT22;2007;48.750;9.278;2022-12-22T08:10:51;16.50;53.20
3986;DHT22;2007;48.750;9.278;2022-12-22T08:13:19;16.50;53.20
3986;DHT22;2007;48.750;9.278;2022-12-22T08:15:48;16.50;53.20
3986;DHT22;2007;48.750;9.278;2022-12-22T08:18:16;16.50;53.20
3986;DHT22;2007;48.750;9.278;2022-12-22T08:20:48;16.50;53.10
3986;DHT22;2007;48.750;9.278;2022-12-22T08:23:16;16.50;53.10
3986;DHT22;2007;48.750;9.278;2022-12-22T08:25:45;16.50;53.10
3986;DHT22;2007;48.750;9.278;2022-12-22T08:28:15;16.50;53.20
3986;DHT22;2007;48.750;9.278;2022-12-22T08:30:44;16.50;53.10
3986;DHT22;2007;48.750;9.278;2022-12-22T08:33:14;16.50;53.80
3986;DHT22;2007;48.750;9.278;2022-12-22T08:35:42;16.50;53.10
3986;DHT22;2007;48.750;9.278;2022-12-22T08:38:11;16.60;53.20
3986;DHT22;2007;48.750;9.278;2022-12-22T08:40:41;16.60;53.20
3986;DHT22;2007;48.750;9.278;2022-12-22T08:43:10;16.50;53.10
3986;DHT22;2007;48.750;9.278;2022-12-22T08:45:40;16.60;53.30
3986;DHT22;2007;48.750;9.278;2022-12-22T08:48:08;16.60;53.20
3986;DHT22;2007;48.750;9.278;2022-12-22T08:50:38;16.60;53.20
3986;DHT22;2007;48.750;9.278;2022-12-22T08:53:07;16.60;53.30
3986;DHT22;2007;48.750;9.278;2022-12-22T08:55:55;16.60;53.30
3986;DHT22;2007;48.750;9.278;2022-12-22T08:58:23;16.60;53.20
3986;DHT22;2007;48.750;9.278;2022-12-22T09:00:51;16.60;53.30
3986;DHT22;2007;48.750;9.278;2022-12-22T09:03:19;16.60;53.20
3986;DHT22;2007;48.750;9.278;2022-12-22T09:05:48;16.60;53.20
3986;DHT22;2007;48.750;9.278;2022-12-22T09:08:16;16.60;53.20
3986;DHT22;2007;48.750;9.278;2022-12-22T09:10:44;16.60;53.20
3986;DHT22;2007;48.750;9.278;2022-12-22T09:13:12;16.60;53.20
3986;DHT22;2007;48.750;9.278;2022-12-22T09:15:40;16.60;53.20
3986;DHT22;2007;48.750;9.278;2022-12-22T09:18:08;16.60;53.20
3986;DHT22;2007;48.750;9.278;2022-12-22T09:20:36;16.60;53.20
3986;DHT22;2007;48.750;9.278;2022-12-22T09:23:05;16.60;53.20
3986;DHT22;2007;48.750;9.278;2022-12-22T09:25:33;16.60;53.20
3986;DHT22;2007;48.750;9.278;2022-12-22T09:28:01;16.60;53.20
3986;DHT22;2007;48.750;9.278;2022-12-22T09:30:33;16.60;53.20
3986;DHT22;2007;48.750;9.278;2022-12-22T09:33:01;16.60;53.20
3986;DHT22;2007;48.750;9.278;2022-12-22T09:35:28;16.60;53.20
3986;DHT22;2007;48.750;9.278;2022-12-22T09:37:57;16.60;53.20
3986;DHT22;2007;48.750;9.278;2022-12-22T09:40:26;16.60;53.20
3986;DHT22;2007;48.750;9.278;2022-12-22T09:42:54;16.60;53.20
3986;DHT22;2007;48.750;9.278;2022-12-22T09:45:22;16.60;53.20
3986;DHT22;2007;48.750;9.278;2022-12-22T09:47:51;16.60;53.30
3986;DHT22;2007;48.750;9.278;2022-12-22T09:50:22;16.60;53.20
3986;DHT22;2007;48.750;9.278;2022-12-22T09:52:52;16.60;53.20
3986;DHT22;2007;48.750;9.278;2022-12-22T09:55:36;16.60;53.20
3986;DHT22;2007;48.750;9.278;2022-12-22T09:58:13;16.70;53.30
3986;DHT22;2007;48.750;9.278;2022-12-22T10:00:56;16.70;53.30
3986;DHT22;2007;48.750;9.278;2022-12-22T10:03:39;16.60;53.20
3986;DHT22;2007;48.750;9.278;2022-12-22T10:06:11;16.60;53.20
3986;DHT22;2007;48.750;9.278;2022-12-22T10:08:41;16.70;53.30
3986;DHT22;2007;48.750;9.278;2022-12-22T10:11:13;16.70;53.30
3986;DHT22;2007;48.750;9.278;2022-12-22T10:13:42;16.70;53.40
3986;DHT22;2007;48.750;9.278;2022-12-22T10:16:18;16.70;53.30
3986;DHT22;2007;48.750;9.278;2022-12-22T10:18:59;16.70;53.30
3986;DHT22;2007;48.750;9.278;2022-12-22T10:21:28;16.70;53.30
3986;DHT22;2007;48.750;9.278;2022-12-22T10:23:56;16.70;53.30
3986;DHT22;2007;48.750;9.278;2022-12-22T10:26:27;16.70;53.30
3986;DHT22;2007;48.750;9.278;2022-12-22T10:29:00;16.70;53.30
3986;DHT22;2007;48.750;9.278;2022-12-22T10:31:31;16.70;53.40
3986;DHT22;2007;48.750;9.278;2022-12-22T10:34:10;16.70;53.30
3986;DHT22;2007;48.750;9.278;2022-12-22T10:36:38;16.70;53.40
3986;DHT22;2007;48.750;9.278;2022-12-22T10:39:08;16.70;53.30
3986;DHT22;2007;48.750;9.278;2022-12-22T10:41:40;16.70;53.30
3986;DHT22;2007;48.750;9.278;2022-12-22T10:44:18;16.70;53.30
3986;DHT22;2007;48.750;9.278;2022-12-22T10:46:49;16.70;53.40
3986;DHT22;2007;48.750;9.278;2022-12-22T10:49:20;16.70;53.30
3986;DHT22;2007;48.750;9.278;2022-12-22T10:51:51;16.70;53.30
3986;DHT22;2007;48.750;9.278;2022-12-22T10:54:31;16.70;53.30
3986;DHT22;2007;48.750;9.278;2022-12-22T10:57:03;16.70;53.30
3986;DHT22;2007;48.750;9.278;2022-12-22T10:59:33;16.70;53.40
3986;DHT22;2007;48.750;9.278;2022-12-22T11:02:24;16.70;53.30
3986;DHT22;2007;48.750;9.278;2022-12-22T11:04:54;16.70;53.40
3986;DHT22;2007;48.750;9.278;2022-12-22T11:07:28;16.70;53.40
3986;DHT22;2007;48.750;9.278;2022-12-22T11:09:56;16.70;53.40
3986;DHT22;2007;48.750;9.278;2022-12-22T11:12:34;16.70;53.40
3986;DHT22;2007;48.750;9.278;2022-12-22T11:15:14;16.70;53.40
3986;DHT22;2007;48.750;9.278;2022-12-22T11:17:56;16.70;53.30
3986;DHT22;2007;48.750;9.278;2022-12-22T11:20:44;16.70;53.40
3986;DHT22;2007;48.750;9.278;2022-12-22T11:23:18;16.70;53.40
3986;DHT22;2007;48.750;9.278;2022-12-22T11:25:54;16.70;53.30
3986;DHT22;2007;48.750;9.278;2022-12-22T11:28:45;16.70;53.40
3986;DHT22;2007;48.750;9.278;2022-12-22T11:31:22;16.70;53.40
3986;DHT22;2007;48.750;9.278;2022-12-22T11:34:01;16.70;53.40
3986;DHT22;2007;48.750;9.278;2022-12-22T11:36:44;16.70;53.30
3986;DHT22;2007;48.750;9.278;2022-12-22T11:39:21;16.70;53.40
3986;DHT22;2007;48.750;9.278;2022-12-22T11:42:03;16.70;53.40
3986;DHT22;2007;48.750;9.278;2022-12-22T11:44:44;16.70;53.30
3986;DHT22;2007;48.750;9.278;2022-12-22T11:47:21;16.70;53.30
3986;DHT22;2007;48.750;9.278;2022-12-22T11:50:09;16.70;53.40
3986;DHT22;2007;48.750;9.278;2022-12-22T11:53:17;16.70;53.40
3986;DHT22;2007;48.750;9.278;2022-12-22T11:56:00;16.80;53.40
3986;DHT22;2007;48.750;9.278;2022-12-22T11:58:42;16.80;53.40
3986;DHT22;2007;48.750;9.278;2022-12-22T12:01:28;16.80;53.40
3986;DHT22;2007;48.750;9.278;2022-12-22T12:04:14;16.80;53.40
3986;DHT22;2007;48.750;9.278;2022-12-22T12:07:03;16.80;53.40
3986;DHT22;2007;48.750;9.278;2022-12-22T12:09:43;16.80;53.40
3986;DHT22;2007;48.750;9.278;2022-12-22T12:12:16;16.80;53.40
3986;DHT22;2007;48.750;9.278;2022-12-22T12:14:52;16.80;53.40
3986;DHT22;2007;48.750;9.278;2022-12-22T12:17:35;16.80;53.40
3986;DHT22;2007;48.750;9.278;2022-12-22T12:20:28;16.80;53.40
3986;DHT22;2007;48.750;9.278;2022-12-22T12:23:10;16.80;53.40
3986;DHT22;2007;48.750;9.278;2022-12-22T12:25:44;16.80;53.40
3986;DHT22;2007;48.750;9.278;2022-12-22T12:28:22;16.80;53.40
3986;DHT22;2007;48.750;9.278;2022-12-22T12:30:53;16.80;53.40
3986;DHT22;2007;48.750;9.278;2022-12-22T12:33:34;16.80;53.40
3986;DHT22;2007;48.750;9.278;2022-12-22T12:36:09;16.80;53.40
3986;DHT22;2007;48.750;9.278;2022-12-22T12:38:45;16.80;53.40
3986;DHT22;2007;48.750;9.278;2022-12-22T12:41:39;16.80;53.40
3986;DHT22;2007;48.750;9.278;2022-12-22T12:44:13;16.80;53.40
3986;DHT22;2007;48.750;9.278;2022-12-22T12:47:04;16.80;53.40
3986;DHT22;2007;48.750;9.278;2022-12-22T12:49:59;16.80;53.40
3986;DHT22;2007;48.750;9.278;2022-12-22T12:56:00;16.80;53.40
3986;DHT22;2007;48.750;9.278;2022-12-22T12:58:53;16.80;53.40
3986;DHT22;2007;48.750;9.278;2022-12-22T13:08:05;16.80;53.40
3986;DHT22;2007;48.750;9.278;2022-12-22T13:10:35;16.80;53.40
3986;DHT22;2007;48.750;9.278;2022-12-22T13:13:03;16.80;53.40
3986;DHT22;2007;48.750;9.278;2022-12-22T13:15:33;16.80;53.40
3986;DHT22;2007;48.750;9.278;2022-12-22T13:18:02;16.80;53.40
3986;DHT22;2007;48.750;9.278;2022-12-22T13:20:33;16.80;53.40
3986;DHT22;2007;48.750;9.278;2022-12-22T13:23:08;16.80;53.40
3986;DHT22;2007;48.750;9.278;2022-12-22T13:25:45;16.80;53.40
3986;DHT22;2007;48.750;9.278;2022-12-22T13:28:16;16.80;53.40
3986;DHT22;2007;48.750;9.278;2022-12-22T13:30:46;16.80;53.40
3986;DHT22;2007;48.750;9.278;2022-12-22T13:33:17;16.80;53.40
3986;DHT22;2007;48.750;9.278;2022-12-22T13:35:46;16.80;53.40
3986;DHT22;2007;48.750;9.278;2022-12-22T13:38:29;16.80;53.40
3986;DHT22;2007;48.750;9.278;2022-12-22T13:41:01;16.80;53.40
3986;DHT22;2007;48.750;9.278;2022-12-22T13:43:31;16.90;53.50
3986;DHT22;2007;48.750;9.278;2022-12-22T13:46:01;16.90;53.50
3986;DHT22;2007;48.750;9.278;2022-12-22T13:48:36;16.80;53.40
3986;DHT22;2007;48.750;9.278;2022-12-22T13:51:16;16.90;53.50
3986;DHT22;2007;48.750;9.278;2022-12-22T13:53:47;16.80;53.40
3986;DHT22;2007;48.750;9.278;2022-12-22T13:56:39;16.90;53.50
3986;DHT22;2007;48.750;9.278;2022-12-22T13:59:19;16.90;53.50
3986;DHT22;2007;48.750;9.278;2022-12-22T14:01:51;16.90;53.50
3986;DHT22;2007;48.750;9.278;2022-12-22T14:04:19;16.90;53.50
3986;DHT22;2007;48.750;9.278;2022-12-22T14:06:47;16.90;53.50
3986;DHT22;2007;48.750;9.278;2022-12-22T14:09:17;16.90;53.50
3986;DHT22;2007;48.750;9.278;2022-12-22T14:11:48;16.90;53.50
3986;DHT22;2007;48.750;9.278;2022-12-22T14:14:24;16.90;53.50
3986;DHT22;2007;48.750;9.278;2022-12-22T14:16:54;16.90;53.50
3986;DHT22;2007;48.750;9.278;2022-12-22T14:19:24;16.90;53.50
3986;DHT22;2007;48.750;9.278;2022-12-22T14:22:01;16.90;53.50
3986;DHT22;2007;48.750;9.278;2022-12-22T14:24:34;16.90;53.50
3986;DHT22;2007;48.750;9.278;2022-12-22T14:27:16;16.90;53.50
3986;DHT22;2007;48.750;9.278;2022-12-22T14:29:45;16.90;53.50
3986;DHT22;2007;48.750;9.278;2022-12-22T14:32:32;16.90;53.50
3986;DHT22;2007;48.750;9.278;2022-12-22T14:35:01;16.90;53.50
3986;DHT22;2007;48.750;9.278;2022-12-22T14:37:29;16.90;53.50
3986;DHT22;2007;48.750;9.278;2022-12-22T14:39:59;16.90;53.50
3986;DHT22;2007;48.750;9.278;2022-12-22T14:42:28;16.90;53.50
3986;DHT22;2007;48.750;9.278;2022-12-22T14:44:57;16.90;53.50
3986;DHT22;2007;48.750;9.278;2022-12-22T14:47:26;16.90;53.50
3986;DHT22;2007;48.750;9.278;2022-12-22T14:49:56;16.90;53.50
3986;DHT22;2007;48.750;9.278;2022-12-22T14:52:33;16.90;53.50
3986;DHT22;2007;48.750;9.278;2022-12-22T14:55:06;16.90;53.50
3986;DHT22;2007;48.750;9.278;2022-12-22T14:57:51;16.90;53.50
3986;DHT22;2007;48.750;9.278;2022-12-22T15:00:29;16.90;53.50
3986;DHT22;2007;48.750;9.278;2022-12-22T15:03:00;16.90;53.50
3986;DHT22;2007;48.750;9.278;2022-12-22T15:05:30;16.90;53.50
3986;DHT22;2007;48.750;9.278;2022-12-22T15:08:01;16.90;53.50
3986;DHT22;2007;48.750;9.278;2022-12-22T15:10:38;16.90;53.50
3986;DHT22;2007;48.750;9.278;2022-12-22T15:13:17;16.90;53.50
3986;DHT22;2007;48.750;9.278;2022-12-22T15:15:45;16.90;53.50
3986;DHT22;2007;48.750;9.278;2022-12-22T15:18:14;16.90;53.50
3986;DHT22;2007;48.750;9.278;2022-12-22T15:20:42;16.90;53.50
3986;DHT22;2007;48.750;9.278;2022-12-22T15:23:13;16.90;53.50
3986;DHT22;2007;48.750;9.278;2022-12-22T15:25:43;16.90;53.50
3986;DHT22;2007;48.750;9.278;2022-12-22T15:28:12;16.90;53.50
3986;DHT22;2007;48.750;9.278;2022-12-22T15:30:41;16.90;53.50
3986;DHT22;2007;48.750;9.278;2022-12-22T15:33:12;16.90;53.50
3986;DHT22;2007;48.750;9.278;2022-12-22T15:35:41;16.90;53.50
3986;DHT22;2007;48.750;9.278;2022-12-22T15:38:11;16.90;53.50
3986;DHT22;2007;48.750;9.278;2022-12-22T15:40:40;17.00;53.60
3986;DHT22;2007;48.750;9.278;2022-12-22T15:43:08;16.90;53.50
3986;DHT22;2007;48.750;9.278;2022-12-22T15:45:58;17.00;53.60
3986;DHT22;2007;48.750;9.278;2022-12-22T15:48:28;17.00;53.60
3986;DHT22;2007;48.750;9.278;2022-12-22T15:50:57;17.00;53.60
3986;DHT22;2007;48.750;9.278;2022-12-22T15:53:26;17.00;53.60
3986;DHT22;2007;48.750;9.278;2022-12-22T15:55:54;17.00;53.60
3986;DHT22;2007;48.750;9.278;2022-12-22T15:58:26;17.00;53.60
3986;DHT22;2007;48.750;9.278;2022-12-22T16:00:57;17.00;53.60
3986;DHT22;2007;48.750;9.278;2022-12-22T16:03:25;17.00;53.60
3986;DHT22;2007;48.750;9.278;2022-12-22T16:05:53;17.00;53.60
3986;DHT22;2007;48.750;9.278;2022-12-22T16:08:26;17.00;53.60
3986;DHT22;2007;48.750;9.278;2022-12-22T16:10:55;17.00;53.60
3986;DHT22;2007;48.750;9.278;2022-12-22T16:13:26;17.00;53.60
3986;DHT22;2007;48.750;9.278;2022-12-22T16:15:54;17.00;53.60
3986;DHT22;2007;48.750;9.278;2022-12-22T16:18:24;17.00;53.60
3986;DHT22;2007;48.750;9.278;2022-12-22T16:20:52;17.00;53.60
3986;DHT22;2007;48.750;9.278;2022-12-22T16:23:22;17.00;53.60
3986;DHT22;2007;48.750;9.278;2022-12-22T16:25:53;17.00;53.60
3986;DHT22;2007;48.750;9.278;2022-12-22T16:28:28;17.00;53.60
3986;DHT22;2007;48.750;9.278;2022-12-22T16:30:56;17.00;53.60
3986;DHT22;2007;48.750;9.278;2022-12-22T16:33:25;17.00;53.60
3986;DHT22;2007;48.750;9.278;2022-12-22T16:35:54;17.00;53.60
3986;DHT22;2007;48.750;9.278;2022-12-22T16:38:22;17.00;53.60
3986;DHT22;2007;48.750;9.278;2022-12-22T16:40:51;17.00;53.60
3986;DHT22;2007;48.750;9.278;2022-12-22T16:43:20;17.00;53.60
3986;DHT22;2007;48.750;9.278;2022-12-22T16:46:13;17.00;53.60
3986;DHT22;2007;48.750;9.278;2022-12-22T16:48:44;17.00;53.60
3986;DHT22;2007;48.750;9.278;2022-12-22T16:51:17;17.00;53.60
3986;DHT22;2007;48.750;9.278;2022-12-22T16:53:45;17.00;53.60
3986;DHT22;2007;48.750;9.278;2022-12-22T16:56:15;17.00;53.60
3986;DHT22;2007;48.750;9.278;2022-12-22T16:58:45;17.00;53.60
3986;DHT22;2007;48.750;9.278;2022-12-22T17:01:27;17.00;53.60
3986;DHT22;2007;48.750;9.278;2022-12-22T17:04:01;17.00;53.60